Time;durP1;ratioP1;P1;durP2;ratioP2;P2;SDS_P1;SDS_P2;PMS_P1;PMS_P2;Temp;Humidity;BMP_temperature;BMP_pressure;BME280_temperature;BME280_humidity;BME280_pressure;Samples;Min_cycle;Max_cycle;Signal;HPM_P1;HPM_P2
2022/10/05 00:01:58;;;;;;;0.20;0.20;;;18.70;84.90;;;;;;4176035;28;20124;-64
2022/10/05 00:04:39;;;;;;;0.75;0.65;;;18.70;84.90;;;;;;4169335;28;20051;-64
2022/10/05 00:07:22;;;;;;;0.10;0.10;;;18.70;84.90;;;;;;4191531;28;20129;-63
2022/10/05 00:10:13;;;;;;;0.00;0.00;;;18.60;84.90;;;;;;4191751;28;20056;-62
2022/10/05 00:12:55;;;;;;;0.00;0.00;;;18.70;84.90;;;;;;4176371;28;20056;-64
2022/10/05 00:15:36;;;;;;;0.00;0.00;;;18.70;85.00;;;;;;4152373;28;20052;-62
2022/10/05 00:18:20;;;;;;;0.08;0.08;;;18.70;84.90;;;;;;4158970;28;20044;-63
2022/10/05 00:21:02;;;;;;;0.10;0.10;;;18.60;85.10;;;;;;4174753;28;20186;-62
2022/10/05 00:23:43;;;;;;;0.10;0.10;;;18.60;85.10;;;;;;4187059;28;20044;-63
2022/10/05 00:26:26;;;;;;;0.10;0.10;;;18.70;85.20;;;;;;4192147;28;20055;-63
2022/10/05 00:29:19;;;;;;;0.00;0.00;;;18.70;85.30;;;;;;4192137;28;20047;-63
2022/10/05 00:32:00;;;;;;;0.52;0.52;;;18.60;85.20;;;;;;4202617;28;20054;-65
2022/10/05 00:34:43;;;;;;;1.90;0.38;;;18.60;85.30;;;;;;4172079;28;20075;-63
2022/10/05 00:37:24;;;;;;;0.00;0.00;;;18.60;85.30;;;;;;4146491;28;20052;-64
2022/10/05 00:40:17;;;;;;;0.10;0.10;;;18.60;85.40;;;;;;4146990;28;20052;-64
2022/10/05 00:43:21;;;;;;;0.00;0.00;;;18.60;85.40;;;;;;4168056;28;20122;-64
2022/10/05 00:46:10;;;;;;;0.10;0.10;;;18.70;85.50;;;;;;4191622;28;20518;-63
2022/10/05 00:49:01;;;;;;;0.00;0.00;;;18.60;85.40;;;;;;4175240;28;20533;-63
2022/10/05 00:51:49;;;;;;;0.00;0.00;;;18.60;85.40;;;;;;4176017;28;20126;-63
2022/10/05 00:54:37;;;;;;;0.00;0.00;;;18.60;85.40;;;;;;4173489;28;20078;-62
2022/10/05 00:57:28;;;;;;;0.10;0.10;;;18.60;85.40;;;;;;4177712;28;20070;-61
2022/10/05 01:00:13;;;;;;;2.90;1.48;;;18.60;85.40;;;;;;4174218;28;20056;-64
2022/10/05 01:03:01;;;;;;;0.00;0.00;;;18.60;85.40;;;;;;4161742;28;20183;-62
2022/10/05 01:05:56;;;;;;;0.00;0.00;;;18.60;85.50;;;;;;4188375;28;20162;-63
2022/10/05 01:08:47;;;;;;;0.00;0.00;;;18.60;85.60;;;;;;4162307;28;20051;-62
2022/10/05 01:11:33;;;;;;;0.67;0.67;;;18.60;85.50;;;;;;4162147;28;20063;-63
2022/10/05 01:14:20;;;;;;;0.00;0.00;;;18.60;85.60;;;;;;4157988;28;20826;-63
2022/10/05 01:17:08;;;;;;;0.00;0.00;;;18.60;85.50;;;;;;4174946;28;20086;-63
2022/10/05 01:20:24;;;;;;;0.28;0.28;;;18.60;85.50;;;;;;4174047;28;20055;-63
2022/10/05 01:23:40;;;;;;;0.00;0.00;;;18.60;85.60;;;;;;4189225;28;20055;-63
2022/10/05 01:26:56;;;;;;;0.00;0.00;;;18.60;85.50;;;;;;4191329;28;20059;-62
2022/10/05 01:29:43;;;;;;;0.20;0.20;;;18.60;85.60;;;;;;4191032;28;20201;-63
2022/10/05 01:32:31;;;;;;;0.40;0.40;;;18.60;85.50;;;;;;4173867;28;20179;-62
2022/10/05 01:35:22;;;;;;;0.13;0.13;;;18.60;85.60;;;;;;4176943;28;20505;-62
2022/10/05 01:38:19;;;;;;;0.20;0.20;;;18.60;85.70;;;;;;4157812;28;20088;-62
2022/10/05 01:41:09;;;;;;;0.00;0.00;;;18.60;85.60;;;;;;4157887;28;20122;-62
2022/10/05 01:43:53;;;;;;;0.00;0.00;;;18.60;85.90;;;;;;4178564;28;20051;-63
2022/10/05 01:46:43;;;;;;;0.00;0.00;;;18.60;85.70;;;;;;4173967;28;20518;-63
2022/10/05 01:49:35;;;;;;;0.00;0.00;;;18.60;85.70;;;;;;4190506;28;20082;-63
2022/10/05 01:52:27;;;;;;;0.00;0.00;;;18.50;85.60;;;;;;4190360;28;20050;-63
2022/10/05 01:55:18;;;;;;;0.05;0.05;;;18.60;85.70;;;;;;4179022;28;20048;-63
2022/10/05 01:58:11;;;;;;;0.00;0.00;;;18.60;85.70;;;;;;4162574;28;20847;-63
2022/10/05 02:01:00;;;;;;;0.00;0.00;;;18.50;85.70;;;;;;4190639;28;20130;-62
2022/10/05 02:03:49;;;;;;;0.00;0.00;;;18.50;85.60;;;;;;4174884;28;20053;-63
2022/10/05 02:06:33;;;;;;;0.00;0.00;;;18.60;85.70;;;;;;4162368;28;20511;-63
2022/10/05 02:09:18;;;;;;;3.00;1.33;;;18.60;85.70;;;;;;4190368;28;20155;-63
2022/10/05 02:12:02;;;;;;;0.00;0.00;;;18.50;85.70;;;;;;4190639;28;20212;-63
2022/10/05 02:14:47;;;;;;;0.10;0.10;;;18.50;85.60;;;;;;4190556;28;20047;-63
2022/10/05 02:17:35;;;;;;;0.25;0.25;;;18.50;85.60;;;;;;4190641;28;20062;-63
2022/10/05 02:20:24;;;;;;;0.00;0.00;;;18.50;85.60;;;;;;4172835;28;20059;-62
2022/10/05 02:23:10;;;;;;;0.15;0.15;;;18.60;85.70;;;;;;4188537;28;20194;-63
2022/10/05 02:25:54;;;;;;;0.00;0.00;;;18.50;85.70;;;;;;4174315;28;20118;-63
2022/10/05 02:28:41;;;;;;;0.20;0.20;;;18.50;85.60;;;;;;4191793;28;20119;-62
2022/10/05 02:31:26;;;;;;;1.05;1.05;;;18.50;85.70;;;;;;4204862;28;20052;-63
2022/10/05 02:34:24;;;;;;;0.00;0.00;;;18.50;85.70;;;;;;4193462;28;20442;-63
2022/10/05 02:37:26;;;;;;;0.00;0.00;;;18.50;85.80;;;;;;4181341;28;20055;-62
2022/10/05 02:40:19;;;;;;;0.00;0.00;;;18.50;85.70;;;;;;4180562;28;20074;-63
2022/10/05 02:43:09;;;;;;;0.10;0.10;;;18.50;85.90;;;;;;4162667;28;20063;-64
2022/10/05 02:45:57;;;;;;;0.00;0.00;;;18.50;85.70;;;;;;4180100;28;20082;-63
2022/10/05 02:48:47;;;;;;;0.00;0.00;;;18.50;85.70;;;;;;4181057;28;20145;-63
2022/10/05 02:51:38;;;;;;;0.00;0.00;;;18.50;85.70;;;;;;4179606;28;20317;-63
2022/10/05 02:54:34;;;;;;;6.72;0.73;;;18.50;85.80;;;;;;4168082;28;20508;-63
2022/10/05 02:57:22;;;;;;;0.05;0.05;;;18.50;85.70;;;;;;4161248;28;20079;-63
2022/10/05 03:00:07;;;;;;;0.00;0.00;;;18.50;85.70;;;;;;4152458;28;20056;-63
2022/10/05 03:02:57;;;;;;;0.00;0.00;;;18.50;86.00;;;;;;4181069;28;20155;-63
2022/10/05 03:05:43;;;;;;;0.00;0.00;;;18.50;85.90;;;;;;4192648;28;20067;-63
2022/10/05 03:08:33;;;;;;;2.65;1.00;;;18.50;86.00;;;;;;4192808;28;20060;-62
2022/10/05 03:11:26;;;;;;;0.45;0.45;;;18.50;85.90;;;;;;4189918;28;20056;-62
2022/10/05 03:14:13;;;;;;;0.00;0.00;;;18.50;86.00;;;;;;4167352;28;20068;-63
2022/10/05 03:17:05;;;;;;;0.82;0.82;;;18.50;86.90;;;;;;4192725;28;20254;-63
2022/10/05 03:20:03;;;;;;;0.00;0.00;;;18.50;86.00;;;;;;4192304;28;20059;-63
2022/10/05 03:22:49;;;;;;;0.00;0.00;;;18.50;86.10;;;;;;4193031;28;20059;-63
2022/10/05 03:25:54;;;;;;;0.00;0.00;;;18.50;86.10;;;;;;4168890;28;20068;-62
2022/10/05 03:28:45;;;;;;;0.00;0.00;;;18.50;86.10;;;;;;4176077;28;20056;-63
2022/10/05 03:31:32;;;;;;;0.95;0.95;;;18.50;87.00;;;;;;4167861;28;20456;-63
2022/10/05 03:34:20;;;;;;;0.00;0.00;;;18.50;86.20;;;;;;4180700;28;20055;-63
2022/10/05 03:37:10;;;;;;;0.00;0.00;;;18.50;86.20;;;;;;4161336;28;20048;-63
2022/10/05 03:39:57;;;;;;;0.00;0.00;;;18.50;86.20;;;;;;4147387;28;20057;-62
2022/10/05 03:42:50;;;;;;;0.00;0.00;;;18.50;86.20;;;;;;4163367;28;20106;-62
2022/10/05 03:45:41;;;;;;;0.00;0.00;;;18.50;86.20;;;;;;4179117;28;20440;-62
2022/10/05 03:48:28;;;;;;;0.00;0.00;;;18.50;86.20;;;;;;4179375;28;20048;-62
2022/10/05 03:51:16;;;;;;;0.00;0.00;;;18.50;86.30;;;;;;4165518;28;20068;-62
2022/10/05 03:54:04;;;;;;;0.63;0.63;;;18.50;86.30;;;;;;4175688;28;20569;-62
2022/10/05 03:56:49;;;;;;;0.00;0.00;;;18.40;86.20;;;;;;4159807;28;20498;-62
2022/10/05 03:59:36;;;;;;;0.00;0.00;;;18.50;87.00;;;;;;4176571;28;20071;-62
2022/10/05 04:02:24;;;;;;;0.10;0.10;;;18.50;86.20;;;;;;4178958;28;20616;-62
2022/10/05 04:05:14;;;;;;;0.10;0.10;;;18.50;86.30;;;;;;4191916;28;20133;-62
2022/10/05 04:07:59;;;;;;;0.00;0.00;;;18.50;86.30;;;;;;4192173;28;20104;-63
2022/10/05 04:10:44;;;;;;;0.05;0.05;;;18.40;86.20;;;;;;4191949;28;20222;-63
2022/10/05 04:13:34;;;;;;;0.00;0.00;;;18.50;86.20;;;;;;4191698;28;20051;-62
2022/10/05 04:16:19;;;;;;;0.00;0.00;;;18.40;86.30;;;;;;4192041;28;20182;-63
2022/10/05 04:19:05;;;;;;;0.10;0.10;;;18.40;86.30;;;;;;4193161;28;20531;-62
2022/10/05 04:21:50;;;;;;;0.15;0.15;;;18.40;86.20;;;;;;4191724;28;20080;-63
2022/10/05 04:24:36;;;;;;;0.00;0.00;;;18.50;86.50;;;;;;4191927;28;20051;-62
2022/10/05 04:27:21;;;;;;;0.00;0.00;;;18.40;86.70;;;;;;4191631;28;20074;-62
2022/10/05 04:30:07;;;;;;;0.15;0.15;;;18.50;86.60;;;;;;4191752;28;20102;-63
2022/10/05 04:32:53;;;;;;;0.00;0.00;;;18.50;86.60;;;;;;4191424;28;20059;-63
2022/10/05 04:36:06;;;;;;;0.00;0.00;;;18.40;86.50;;;;;;4191663;28;20051;-63
2022/10/05 04:38:57;;;;;;;0.00;0.00;;;18.40;86.50;;;;;;4191291;28;20056;-63
2022/10/05 04:41:50;;;;;;;1.55;1.45;;;18.50;86.50;;;;;;4190806;28;20078;-64
2022/10/05 04:45:03;;;;;;;1.08;0.90;;;18.50;86.50;;;;;;4191463;28;20058;-62
2022/10/05 04:48:24;;;;;;;0.00;0.00;;;18.40;86.30;;;;;;4192619;28;20055;-62
2022/10/05 04:51:20;;;;;;;0.00;0.00;;;18.40;86.30;;;;;;4185686;28;20059;-63
2022/10/05 04:54:12;;;;;;;0.22;0.22;;;18.40;86.40;;;;;;4175104;28;20056;-63
2022/10/05 04:56:55;;;;;;;0.00;0.00;;;18.40;86.30;;;;;;4162937;28;20130;-63
2022/10/05 05:00:03;;;;;;;1.48;1.38;;;18.40;86.40;;;;;;4156415;28;20056;-63
2022/10/05 05:03:06;;;;;;;0.00;0.00;;;18.40;86.40;;;;;;4190057;28;20067;-63
2022/10/05 05:05:58;;;;;;;0.00;0.00;;;18.40;86.30;;;;;;4174824;28;20055;-63
2022/10/05 05:09:27;;;;;;;0.00;0.00;;;18.40;86.40;;;;;;4162797;28;20369;-63
2022/10/05 05:12:21;;;;;;;0.22;0.22;;;18.40;86.50;;;;;;4162664;28;20103;-63
2022/10/05 05:15:17;;;;;;;0.00;0.00;;;18.40;86.20;;;;;;4176918;28;20554;-63
2022/10/05 05:18:15;;;;;;;0.00;0.00;;;18.40;86.10;;;;;;4179083;28;20055;-63
2022/10/05 05:21:02;;;;;;;2.42;1.23;;;18.40;86.10;;;;;;4174524;28;20064;-63
2022/10/05 05:23:49;;;;;;;0.00;0.00;;;18.40;86.10;;;;;;4177855;28;20427;-63
2022/10/05 05:26:47;;;;;;;0.17;0.17;;;18.40;86.10;;;;;;4178898;28;20490;-63
2022/10/05 05:29:41;;;;;;;0.20;0.20;;;18.40;86.10;;;;;;4173728;28;20064;-63
2022/10/05 05:32:34;;;;;;;0.00;0.00;;;18.40;86.20;;;;;;4179169;28;20105;-63
2022/10/05 05:35:38;;;;;;;0.00;0.00;;;18.40;86.20;;;;;;4177427;28;20052;-63
2022/10/05 05:38:30;;;;;;;0.00;0.00;;;18.40;86.20;;;;;;4170338;28;20138;-63
2022/10/05 05:41:14;;;;;;;0.00;0.00;;;18.40;86.10;;;;;;4177275;28;20054;-63
2022/10/05 05:44:14;;;;;;;0.00;0.00;;;18.40;86.40;;;;;;4179132;28;20064;-63
2022/10/05 05:47:00;;;;;;;0.13;0.13;;;18.40;86.70;;;;;;4172211;28;20056;-64
2022/10/05 05:49:59;;;;;;;0.00;0.00;;;18.40;86.70;;;;;;4178905;28;20062;-64
2022/10/05 05:52:51;;;;;;;0.00;0.00;;;18.40;86.70;;;;;;4155459;28;20411;-62
2022/10/05 05:55:36;;;;;;;0.20;0.20;;;18.30;86.60;;;;;;4178847;28;20551;-64
2022/10/05 05:58:23;;;;;;;0.00;0.00;;;18.40;87.10;;;;;;4162768;28;20075;-64
2022/10/05 06:01:10;;;;;;;0.00;0.00;;;18.40;87.10;;;;;;4165337;28;20052;-64
2022/10/05 06:04:15;;;;;;;2.20;2.00;;;18.40;87.00;;;;;;4177015;28;20083;-64
2022/10/05 06:07:01;;;;;;;0.03;0.03;;;18.40;86.70;;;;;;4177203;28;20080;-64
2022/10/05 06:09:46;;;;;;;0.10;0.10;;;18.40;86.50;;;;;;4170929;28;20121;-65
2022/10/05 06:12:38;;;;;;;0.00;0.00;;;18.40;86.50;;;;;;4187658;28;20052;-65
2022/10/05 06:15:30;;;;;;;0.00;0.00;;;18.40;86.30;;;;;;4163853;28;20546;-64
2022/10/05 06:18:16;;;;;;;0.22;0.22;;;18.40;86.20;;;;;;4158245;28;20618;-65
2022/10/05 06:21:01;;;;;;;0.00;0.00;;;18.40;86.20;;;;;;4148955;28;20060;-64
2022/10/05 06:23:48;;;;;;;0.20;0.20;;;18.30;86.10;;;;;;4153951;28;20048;-64
2022/10/05 06:26:54;;;;;;;0.00;0.00;;;18.40;86.10;;;;;;4175765;28;20064;-64
2022/10/05 06:29:47;;;;;;;0.00;0.00;;;18.40;86.10;;;;;;4193245;28;20066;-64
2022/10/05 06:32:32;;;;;;;0.00;0.00;;;18.30;86.00;;;;;;4194767;28;20129;-64
2022/10/05 06:35:24;;;;;;;0.00;0.00;;;18.30;86.00;;;;;;4191136;28;20051;-64
2022/10/05 06:38:19;;;;;;;0.00;0.00;;;18.40;86.00;;;;;;4194730;28;20062;-65
2022/10/05 06:41:11;;;;;;;0.00;0.00;;;18.40;86.00;;;;;;4191949;28;20063;-64
2022/10/05 06:43:58;;;;;;;0.00;0.00;;;18.30;86.00;;;;;;4191838;28;20063;-63
2022/10/05 06:47:00;;;;;;;0.03;0.03;;;18.30;86.00;;;;;;4172297;28;20059;-63
2022/10/05 06:50:13;;;;;;;0.10;0.10;;;18.40;86.70;;;;;;4176450;28;20048;-64
2022/10/05 06:53:32;;;;;;;0.10;0.10;;;18.30;86.60;;;;;;4187893;28;20048;-64
2022/10/05 06:56:19;;;;;;;0.73;0.73;;;18.30;87.50;;;;;;4191685;28;20052;-65
2022/10/05 06:59:09;;;;;;;0.00;0.00;;;18.40;88.60;;;;;;4177202;28;20094;-64
2022/10/05 07:01:57;;;;;;;0.00;0.00;;;18.30;89.30;;;;;;4164961;28;20044;-63
2022/10/05 07:04:54;;;;;;;0.00;0.00;;;18.40;89.30;;;;;;4180352;28;20166;-63
2022/10/05 07:07:43;;;;;;;0.00;0.00;;;18.40;88.50;;;;;;4192887;28;20182;-64
2022/10/05 07:10:31;;;;;;;0.57;0.57;;;18.40;87.80;;;;;;4192158;28;20056;-65
2022/10/05 07:13:32;;;;;;;0.17;0.17;;;18.30;87.30;;;;;;4191837;28;20513;-64
2022/10/05 07:16:24;;;;;;;0.90;0.85;;;18.40;87.40;;;;;;4202061;28;20522;-65
2022/10/05 07:19:11;;;;;;;;;;;18.40;87.30;;;;;;4188057;28;20079;-65
2022/10/05 07:22:12;;;;;;;0.00;0.00;;;18.40;87.10;;;;;;4186621;28;19927;-64
2022/10/05 07:25:02;;;;;;;7.43;6.72;;;18.30;86.80;;;;;;4192803;28;20135;-64
2022/10/05 07:27:53;;;;;;;0.00;0.00;;;18.30;86.60;;;;;;4190930;28;20056;-64
2022/10/05 07:30:42;;;;;;;1.83;1.67;;;18.30;86.50;;;;;;4192186;28;20323;-64
2022/10/05 07:33:28;;;;;;;0.28;0.28;;;18.30;86.50;;;;;;4159207;28;20179;-64
2022/10/05 07:39:21;;;;;;;0.10;0.10;;;18.30;86.80;;;;;;4175197;28;20044;-64
2022/10/05 07:42:17;;;;;;;0.00;0.00;;;18.30;86.70;;;;;;4177117;28;20055;-64
2022/10/05 07:45:09;;;;;;;0.10;0.10;;;18.30;86.60;;;;;;4170186;28;20117;-63
2022/10/05 07:47:54;;;;;;;0.03;0.03;;;18.30;86.60;;;;;;4158581;28;20428;-63
2022/10/05 07:50:40;;;;;;;0.82;0.80;;;18.30;86.30;;;;;;4159836;28;20503;-63
2022/10/05 07:53:25;;;;;;;0.00;0.00;;;18.20;86.20;;;;;;4164219;28;20051;-63
2022/10/05 07:56:12;;;;;;;0.00;0.00;;;18.30;86.20;;;;;;4173177;28;20056;-63
2022/10/05 07:59:00;;;;;;;0.00;0.00;;;18.30;86.20;;;;;;4172226;28;20407;-63
2022/10/05 08:01:47;;;;;;;0.68;0.65;;;18.30;86.10;;;;;;4175612;28;20190;-64
2022/10/05 08:04:34;;;;;;;0.40;0.40;;;18.30;86.20;;;;;;4162272;28;20411;-65
2022/10/05 08:07:20;;;;;;;7.13;0.90;;;18.30;86.10;;;;;;4181563;28;20111;-65
2022/10/05 08:10:23;;;;;;;0.30;0.30;;;18.30;86.90;;;;;;4193475;28;20044;-63
2022/10/05 08:13:13;;;;;;;0.00;0.00;;;18.30;86.00;;;;;;4192968;28;20063;-66
2022/10/05 08:15:58;;;;;;;0.00;0.00;;;18.30;85.90;;;;;;4192881;28;20047;-66
2022/10/05 08:18:54;;;;;;;0.00;0.00;;;18.20;85.80;;;;;;4184521;28;20126;-66
2022/10/05 08:21:39;;;;;;;0.00;0.00;;;18.30;85.80;;;;;;4176001;28;20047;-66
2022/10/05 08:24:34;;;;;;;0.00;0.00;;;18.30;85.70;;;;;;4184556;28;20059;-66
2022/10/05 08:27:19;;;;;;;0.00;0.00;;;18.30;85.60;;;;;;4191252;28;20079;-66
2022/10/05 08:30:04;;;;;;;0.00;0.00;;;18.30;85.50;;;;;;4176284;28;20044;-68
2022/10/05 08:32:52;;;;;;;0.00;0.00;;;18.20;85.40;;;;;;4174841;28;20411;-71
2022/10/05 08:35:38;;;;;;;0.00;0.00;;;18.30;85.40;;;;;;4176419;28;20048;-72
2022/10/05 08:38:25;;;;;;;0.00;0.00;;;18.20;85.50;;;;;;4176258;28;20431;-70
2022/10/05 08:41:51;;;;;;;0.00;0.00;;;18.30;85.40;;;;;;4187565;28;20063;-71
2022/10/05 08:45:03;;;;;;;0.35;0.35;;;18.20;84.80;;;;;;4191787;28;20083;-69
2022/10/05 08:48:26;;;;;;;0.98;0.98;;;18.30;84.50;;;;;;4192072;28;20055;-70
2022/10/05 08:51:49;;;;;;;0.00;0.00;;;18.30;85.00;;;;;;4158526;28;20046;-70
2022/10/05 08:54:50;;;;;;;0.30;0.30;;;18.30;85.20;;;;;;4175228;28;20052;-70
2022/10/05 08:57:57;;;;;;;0.03;0.03;;;18.30;85.10;;;;;;4149427;28;20174;-70
2022/10/05 09:00:48;;;;;;;0.10;0.10;;;18.30;85.00;;;;;;4192242;28;20102;-70
2022/10/05 09:03:50;;;;;;;0.10;0.10;;;18.30;85.90;;;;;;4190748;28;20055;-70
2022/10/05 09:07:03;;;;;;;0.32;0.32;;;18.40;85.00;;;;;;4158178;28;20068;-69
2022/10/05 09:10:22;;;;;;;0.38;0.38;;;18.40;85.00;;;;;;4174686;28;20573;-69
2022/10/05 09:13:23;;;;;;;0.00;0.00;;;18.30;85.00;;;;;;4158221;28;20103;-69
2022/10/05 09:16:13;;;;;;;;;;;18.40;85.10;;;;;;4166418;28;20486;-71
2022/10/05 09:19:09;;;;;;;0.55;0.55;;;18.40;85.10;;;;;;4179041;28;19927;-69
2022/10/05 09:22:01;;;;;;;0.05;0.05;;;18.40;85.00;;;;;;4174225;28;20126;-66
2022/10/05 09:24:55;;;;;;;0.00;0.00;;;18.40;85.00;;;;;;4174276;28;20048;-65
2022/10/05 09:27:38;;;;;;;0.00;0.00;;;18.40;84.90;;;;;;4190975;28;20126;-69
2022/10/05 09:30:42;;;;;;;0.30;0.30;;;18.50;84.90;;;;;;4180052;28;20147;-69
2022/10/05 09:33:56;;;;;;;0.00;0.00;;;18.50;84.80;;;;;;4191883;28;20121;-69
2022/10/05 09:37:13;;;;;;;0.55;0.50;;;18.50;84.50;;;;;;4176149;28;20060;-69
2022/10/05 09:40:39;;;;;;;0.10;0.10;;;18.50;84.10;;;;;;4190457;28;20067;-68
2022/10/05 09:43:52;;;;;;;0.00;0.00;;;18.50;83.80;;;;;;4178586;28;20056;-68
2022/10/05 09:46:47;;;;;;;0.13;0.13;;;18.50;83.60;;;;;;4191441;28;20055;-69
2022/10/05 09:49:58;;;;;;;0.20;0.20;;;18.50;83.50;;;;;;4190863;28;20086;-68
2022/10/05 09:53:05;;;;;;;0.82;0.82;;;18.50;83.30;;;;;;4190860;28;20055;-69
2022/10/05 09:56:20;;;;;;;0.00;0.00;;;18.50;83.00;;;;;;4191451;28;20466;-68
2022/10/05 09:59:34;;;;;;;0.00;0.00;;;18.60;83.00;;;;;;4190792;28;20064;-68
2022/10/05 10:02:26;;;;;;;0.00;0.00;;;18.60;82.90;;;;;;4174223;28;20067;-68
2022/10/05 10:05:26;;;;;;;0.00;0.00;;;18.60;82.80;;;;;;4185330;28;20067;-68
2022/10/05 10:08:23;;;;;;;0.43;0.22;;;18.60;82.70;;;;;;4190432;28;20067;-69
2022/10/05 10:11:16;;;;;;;2.28;1.85;;;18.70;82.80;;;;;;4173959;28;20094;-68
2022/10/05 10:14:22;;;;;;;0.00;0.00;;;18.60;82.50;;;;;;4166634;28;20055;-64
2022/10/05 10:17:17;;;;;;;0.35;0.35;;;18.70;82.50;;;;;;4190174;28;20055;-64
2022/10/05 10:20:09;;;;;;;0.15;0.15;;;18.70;82.50;;;;;;4158002;28;20126;-64
2022/10/05 10:23:08;;;;;;;0.00;0.00;;;18.70;83.30;;;;;;4177665;28;20171;-64
2022/10/05 10:26:25;;;;;;;0.00;0.00;;;18.70;82.20;;;;;;4190370;28;20185;-64
2022/10/05 10:29:48;;;;;;;0.20;0.20;;;18.70;82.20;;;;;;4178057;28;20605;-64
2022/10/05 10:33:14;;;;;;;1.60;1.35;;;18.70;82.10;;;;;;4174213;28;20048;-64
2022/10/05 10:36:00;;;;;;;0.10;0.10;;;18.70;82.10;;;;;;4107353;28;20177;-64
2022/10/05 10:38:57;;;;;;;0.00;0.00;;;18.60;81.90;;;;;;4157530;28;20060;-70
2022/10/05 10:42:15;;;;;;;0.00;0.00;;;18.70;81.90;;;;;;4157115;28;20184;-69
2022/10/05 10:45:21;;;;;;;0.00;0.00;;;18.70;81.80;;;;;;4174651;28;20068;-64
2022/10/05 10:48:10;;;;;;;0.75;0.35;;;18.60;81.50;;;;;;4159217;28;20440;-64
2022/10/05 10:51:17;;;;;;;0.00;0.00;;;18.60;81.50;;;;;;4179259;28;20063;-64
2022/10/05 10:54:32;;;;;;;0.00;0.00;;;18.60;81.30;;;;;;4181135;28;20055;-65
2022/10/05 10:57:17;;;;;;;0.30;0.30;;;18.60;81.30;;;;;;4159519;28;20478;-65
2022/10/05 11:00:21;;;;;;;0.10;0.10;;;18.60;81.40;;;;;;4175842;28;20052;-70
2022/10/05 11:03:42;;;;;;;0.10;0.10;;;18.60;81.30;;;;;;4176962;28;20044;-70
2022/10/05 11:06:51;;;;;;;0.00;0.00;;;18.60;81.20;;;;;;4177681;28;20056;-71
2022/10/05 11:09:49;;;;;;;0.15;0.15;;;18.60;81.20;;;;;;4191677;28;20510;-69
2022/10/05 11:12:54;;;;;;;0.00;0.00;;;18.60;81.10;;;;;;4193570;28;20059;-70
2022/10/05 11:16:21;;;;;;;0.00;0.00;;;18.60;81.00;;;;;;4193146;28;20587;-70
2022/10/05 11:19:29;;;;;;;0.00;0.00;;;18.60;80.90;;;;;;4193829;28;20050;-71
2022/10/05 11:22:31;;;;;;;0.00;0.00;;;18.60;80.80;;;;;;4194068;28;20411;-72
2022/10/05 11:25:35;;;;;;;0.00;0.00;;;18.60;80.70;;;;;;4192099;28;20047;-72
2022/10/05 11:28:40;;;;;;;0.00;0.00;;;18.60;80.70;;;;;;4176676;28;20049;-72
2022/10/05 11:31:57;;;;;;;0.00;0.00;;;18.60;80.70;;;;;;4175496;28;20052;-70
2022/10/05 11:35:00;;;;;;;0.00;0.00;;;18.60;80.70;;;;;;4192804;28;20056;-72
2022/10/05 11:38:21;;;;;;;0.00;0.00;;;18.60;80.60;;;;;;4193096;28;20059;-72
2022/10/05 11:41:31;;;;;;;0.10;0.10;;;18.60;80.70;;;;;;4193307;28;20052;-72
2022/10/05 11:45:06;;;;;;;0.00;0.00;;;18.60;81.50;;;;;;4176701;28;20060;-72
2022/10/05 11:48:06;;;;;;;0.15;0.15;;;18.60;80.60;;;;;;4164778;28;20079;-72
2022/10/05 11:51:04;;;;;;;0.00;0.00;;;18.60;80.60;;;;;;4175756;28;20056;-71
2022/10/05 11:53:56;;;;;;;0.05;0.05;;;18.60;81.50;;;;;;4193129;28;20055;-72
2022/10/05 11:56:41;;;;;;;0.03;0.03;;;18.60;80.60;;;;;;4192400;28;20047;-70
2022/10/05 11:59:30;;;;;;;0.35;0.35;;;18.60;80.60;;;;;;4192949;28;20040;-70
2022/10/05 12:02:47;;;;;;;0.00;0.00;;;18.60;80.60;;;;;;4176136;28;20048;-72
2022/10/05 12:05:34;;;;;;;0.00;0.00;;;18.60;80.50;;;;;;4160233;28;20064;-71
2022/10/05 12:08:30;;;;;;;0.00;0.00;;;18.60;80.40;;;;;;4168521;28;20058;-66
2022/10/05 12:11:36;;;;;;;0.08;0.08;;;18.60;80.40;;;;;;4192138;28;20055;-65
2022/10/05 12:14:25;;;;;;;0.32;0.32;;;18.60;80.40;;;;;;4190721;28;20052;-71
2022/10/05 12:17:16;;;;;;;0.00;0.00;;;18.60;80.30;;;;;;4192098;28;20055;-71
2022/10/05 12:20:03;;;;;;;0.00;0.00;;;18.60;81.30;;;;;;4192697;28;20103;-70
2022/10/05 12:22:50;;;;;;;0.20;0.20;;;18.60;80.60;;;;;;4175904;28;20051;-72
2022/10/05 12:25:36;;;;;;;0.00;0.00;;;18.60;80.70;;;;;;4174990;28;20188;-71
2022/10/05 12:28:22;;;;;;;0.13;0.13;;;18.60;80.80;;;;;;4175303;28;20411;-71
2022/10/05 12:31:17;;;;;;;0.13;0.13;;;18.60;80.70;;;;;;4175349;28;20410;-72
2022/10/05 12:34:05;;;;;;;0.75;0.75;;;18.60;80.70;;;;;;4191831;28;20055;-71
2022/10/05 12:36:52;;;;;;;0.13;0.13;;;18.60;80.90;;;;;;4174291;28;20048;-70
2022/10/05 12:39:53;;;;;;;0.00;0.00;;;18.60;80.90;;;;;;4190197;28;20044;-75
2022/10/05 12:42:44;;;;;;;0.00;0.00;;;18.60;80.80;;;;;;4191450;28;20039;-74
2022/10/05 12:45:28;;;;;;;;;;;18.60;80.70;;;;;;4191756;28;20098;-72
2022/10/05 12:48:42;;;;;;;0.90;0.68;;;18.60;80.80;;;;;;4192571;28;19926;-75
2022/10/05 12:51:37;;;;;;;0.10;0.10;;;18.60;80.80;;;;;;4192208;28;20051;-73
2022/10/05 12:54:28;;;;;;;0.00;0.00;;;18.50;80.90;;;;;;4172281;28;20141;-72
2022/10/05 12:57:17;;;;;;;0.00;0.00;;;18.60;80.90;;;;;;4174970;28;20048;-73
2022/10/05 13:00:03;;;;;;;0.00;0.00;;;18.60;80.70;;;;;;4174725;28;20112;-73
2022/10/05 13:02:47;;;;;;;0.22;0.22;;;18.60;80.80;;;;;;4175009;28;20701;-74
2022/10/05 13:05:34;;;;;;;0.00;0.00;;;18.60;80.80;;;;;;4175314;28;20097;-74
2022/10/05 13:08:23;;;;;;;0.00;0.00;;;18.50;80.70;;;;;;4190855;28;20056;-75
2022/10/05 13:11:08;;;;;;;0.40;0.40;;;18.60;80.80;;;;;;4173441;28;20052;-75
2022/10/05 13:14:09;;;;;;;0.65;0.45;;;18.60;80.80;;;;;;4158038;28;20056;-75
2022/10/05 13:16:58;;;;;;;0.20;0.20;;;18.60;80.80;;;;;;4174794;28;20126;-73
2022/10/05 13:19:44;;;;;;;0.00;0.00;;;18.60;81.70;;;;;;4191859;28;20059;-69
2022/10/05 13:22:35;;;;;;;0.00;0.00;;;18.60;81.00;;;;;;4191727;28;20079;-68
2022/10/05 13:25:25;;;;;;;0.00;0.00;;;18.60;81.10;;;;;;4192463;28;20058;-69
2022/10/05 13:28:16;;;;;;;0.00;0.00;;;18.60;81.10;;;;;;4175244;28;20076;-71
2022/10/05 13:31:06;;;;;;;0.65;0.65;;;18.60;81.10;;;;;;4175257;28;20110;-69
2022/10/05 13:34:05;;;;;;;0.45;0.45;;;18.60;81.10;;;;;;4168628;28;20102;-72
2022/10/05 13:37:06;;;;;;;0.00;0.00;;;18.60;81.10;;;;;;4191386;28;20122;-72
2022/10/05 13:39:58;;;;;;;0.00;0.00;;;18.60;81.10;;;;;;4189962;28;20067;-74
2022/10/05 13:42:46;;;;;;;0.00;0.00;;;18.60;81.20;;;;;;4191054;28;20146;-69
2022/10/05 13:45:35;;;;;;;0.05;0.05;;;18.70;81.20;;;;;;4173682;28;20044;-71
2022/10/05 13:48:26;;;;;;;0.00;0.00;;;18.60;81.30;;;;;;4172214;28;20064;-71
2022/10/05 13:51:17;;;;;;;0.03;0.03;;;18.70;81.30;;;;;;4177634;28;20052;-72
2022/10/05 13:54:05;;;;;;;0.00;0.00;;;18.70;81.30;;;;;;4191914;28;20052;-72
2022/10/05 13:56:51;;;;;;;0.10;0.10;;;18.70;81.40;;;;;;4191252;28;20557;-73
2022/10/05 13:59:38;;;;;;;0.00;0.00;;;18.70;81.40;;;;;;4190903;28;20121;-72
2022/10/05 14:02:25;;;;;;;0.03;0.03;;;18.70;81.50;;;;;;4190788;28;20526;-73
2022/10/05 14:05:17;;;;;;;0.17;0.17;;;18.70;81.50;;;;;;4187324;28;20158;-74
2022/10/05 14:08:16;;;;;;;0.00;0.00;;;18.70;81.80;;;;;;4190333;28;20058;-73
2022/10/05 14:10:57;;;;;;;0.00;0.00;;;18.70;81.70;;;;;;4189855;28;20044;-73
2022/10/05 14:13:46;;;;;;;0.00;0.00;;;18.70;81.70;;;;;;4190953;28;20047;-72
2022/10/05 14:16:27;;;;;;;0.00;0.00;;;18.70;81.70;;;;;;4191191;28;20456;-73
2022/10/05 14:19:18;;;;;;;0.00;0.00;;;18.70;81.70;;;;;;4191106;28;20521;-73
2022/10/05 14:22:02;;;;;;;0.00;0.00;;;18.70;81.80;;;;;;4186100;28;20585;-72
2022/10/05 14:24:52;;;;;;;0.00;0.00;;;18.70;81.80;;;;;;4177826;28;20068;-72
2022/10/05 14:27:35;;;;;;;0.10;0.10;;;18.70;81.90;;;;;;4178013;28;20494;-73
2022/10/05 14:30:22;;;;;;;0.45;0.45;;;18.70;81.90;;;;;;4177622;28;20130;-72
2022/10/05 14:33:16;;;;;;;0.00;0.00;;;18.80;82.10;;;;;;4173973;28;20055;-72
2022/10/05 14:35:58;;;;;;;0.00;0.00;;;18.70;82.00;;;;;;4192787;28;20510;-72
2022/10/05 14:38:52;;;;;;;0.00;0.00;;;18.70;82.20;;;;;;4194058;28;20105;-73
2022/10/05 14:41:36;;;;;;;0.00;0.00;;;18.70;82.20;;;;;;4193841;28;20170;-73
2022/10/05 14:44:27;;;;;;;0.00;0.00;;;18.80;82.40;;;;;;4193984;28;20064;-73
2022/10/05 14:47:22;;;;;;;0.00;0.00;;;18.70;82.50;;;;;;4194309;28;20506;-73
2022/10/05 14:50:16;;;;;;;0.22;0.22;;;18.80;82.60;;;;;;4164925;28;20056;-72
2022/10/05 14:53:13;;;;;;;0.00;0.00;;;18.80;82.60;;;;;;4176422;28;20060;-72
2022/10/05 14:56:15;;;;;;;0.00;0.00;;;18.70;82.60;;;;;;4193740;28;20048;-72
2022/10/05 14:59:22;;;;;;;0.00;0.00;;;18.80;82.50;;;;;;4175623;28;20074;-71
2022/10/05 15:02:23;;;;;;;0.00;0.00;;;18.70;82.50;;;;;;4169350;28;20055;-72
2022/10/05 15:05:09;;;;;;;0.38;0.38;;;18.70;82.60;;;;;;4164031;28;20068;-72
2022/10/05 15:07:56;;;;;;;0.10;0.10;;;18.80;82.60;;;;;;4164954;28;20178;-72
2022/10/05 15:10:42;;;;;;;0.68;0.68;;;18.80;82.70;;;;;;4176311;28;20087;-74